createdAt,value
2023-03-30T00:01:12.446Z,9.38
2023-03-30T00:03:40.750Z,8.95
2023-03-30T00:06:09.045Z,7.25
2023-03-30T00:08:37.825Z,7.38
2023-03-30T00:11:08.793Z,10.52
2023-03-30T00:13:38.732Z,7.85
2023-03-30T00:16:08.606Z,6.28
2023-03-30T00:18:39.363Z,5.65
2023-03-30T00:21:09.495Z,11.25
2023-03-30T00:23:37.889Z,6.60
2023-03-30T00:26:07.375Z,7.47
2023-03-30T00:28:35.480Z,8.98
2023-03-30T00:31:05.026Z,9.55
2023-03-30T00:33:44.680Z,9.05
2023-03-30T00:36:15.770Z,9.33
2023-03-30T00:38:44.130Z,7.97
2023-03-30T00:41:12.260Z,8.00
2023-03-30T00:43:56.228Z,8.82
2023-03-30T00:46:26.183Z,8.80
2023-03-30T00:48:57.802Z,9.00
2023-03-30T00:51:27.559Z,7.38
2023-03-30T00:53:58.849Z,7.65
2023-03-30T00:56:30.141Z,10.07
2023-03-30T00:58:58.588Z,8.20
2023-03-30T01:01:29.228Z,8.57
2023-03-30T01:04:02.165Z,8.95
2023-03-30T01:06:31.730Z,9.07
2023-03-30T01:09:00.712Z,7.80
2023-03-30T01:11:29.442Z,7.93
2023-03-30T01:14:01.342Z,7.65
2023-03-30T01:16:39.698Z,9.07
2023-03-30T01:19:30.040Z,6.85
2023-03-30T01:22:30.615Z,11.15
2023-03-30T01:25:20.567Z,8.50
2023-03-30T01:28:09.132Z,9.20
2023-03-30T01:31:01.114Z,10.05
2023-03-30T01:33:58.989Z,8.20
2023-03-30T01:37:01.463Z,10.95
2023-03-30T01:39:41.983Z,7.25
2023-03-30T01:42:20.032Z,9.30
2023-03-30T01:44:56.500Z,7.28
2023-03-30T01:47:31.507Z,8.20
2023-03-30T01:50:04.858Z,9.82
2023-03-30T01:52:38.732Z,7.47
2023-03-30T01:55:14.870Z,8.95
2023-03-30T01:57:49.043Z,10.63
2023-03-30T02:00:22.739Z,10.27
2023-03-30T02:02:54.799Z,9.02
2023-03-30T02:05:24.933Z,9.73
2023-03-30T02:07:57.080Z,10.13
2023-03-30T02:10:30.387Z,12.57
2023-03-30T02:13:01.026Z,6.20
2023-03-30T02:15:35.548Z,12.10
2023-03-30T02:18:04.877Z,8.35
2023-03-30T02:20:34.655Z,9.30
2023-03-30T02:23:06.020Z,9.63
2023-03-30T02:25:38.407Z,6.60
2023-03-30T02:28:07.908Z,8.52
2023-03-30T02:30:37.877Z,9.80
2023-03-30T02:33:07.472Z,9.00
2023-03-30T02:36:01.009Z,10.65
2023-03-30T02:38:55.754Z,9.02
2023-03-30T02:41:36.175Z,9.95
2023-03-30T02:44:15.057Z,9.93
2023-03-30T02:46:58.967Z,12.27
2023-03-30T02:49:39.736Z,6.80
2023-03-30T02:52:17.281Z,7.60
2023-03-30T02:54:50.060Z,8.82
2023-03-30T02:57:32.486Z,7.57
2023-03-30T03:02:35.453Z,10.32
2023-03-30T03:05:04.637Z,6.65
2023-03-30T03:07:33.899Z,5.75
2023-03-30T03:10:02.410Z,8.43
2023-03-30T03:12:31.870Z,8.73
2023-03-30T03:15:02.506Z,8.68
2023-03-30T03:17:34.779Z,10.30
2023-03-30T03:20:04.087Z,7.57
2023-03-30T03:22:32.434Z,9.30
2023-03-30T03:25:02.538Z,9.02
2023-03-30T03:27:32.451Z,12.10
2023-03-30T03:30:00.696Z,7.90
2023-03-30T03:32:28.822Z,11.10
2023-03-30T03:34:57.090Z,10.85
2023-03-30T03:37:25.178Z,10.27
2023-03-30T03:39:53.220Z,10.13
2023-03-30T03:42:21.187Z,9.52
2023-03-30T03:44:50.701Z,12.75
2023-03-30T03:47:18.875Z,12.20
2023-03-30T03:49:46.876Z,14.43
2023-03-30T03:52:14.900Z,12.95
2023-03-30T03:54:42.937Z,15.00
2023-03-30T03:57:10.998Z,12.77
2023-03-30T03:59:39.083Z,14.70
2023-03-30T04:02:08.504Z,14.25
2023-03-30T04:04:36.544Z,21.95
2023-03-30T04:07:05.668Z,17.13
2023-03-30T04:09:33.712Z,14.65
2023-03-30T04:12:01.711Z,19.38
2023-03-30T04:14:29.758Z,17.13
2023-03-30T04:16:58.200Z,13.68
2023-03-30T04:19:31.390Z,19.60
2023-03-30T04:21:59.414Z,18.52
2023-03-30T04:24:29.822Z,15.48
2023-03-30T04:26:58.658Z,17.77
2023-03-30T04:29:26.689Z,20.58
2023-03-30T04:31:56.682Z,19.75
2023-03-30T04:34:24.684Z,21.30
2023-03-30T04:36:54.267Z,22.35
2023-03-30T04:39:22.284Z,21.35
2023-03-30T04:41:52.286Z,27.67
2023-03-30T04:44:22.030Z,20.90
2023-03-30T04:46:50.082Z,19.63
2023-03-30T04:49:18.035Z,18.90
2023-03-30T04:51:46.048Z,26.25
2023-03-30T04:54:15.528Z,18.45
2023-03-30T04:56:43.559Z,21.52
2023-03-30T04:59:12.111Z,20.45
2023-03-30T05:01:40.116Z,23.35
2023-03-30T05:04:08.415Z,22.42
2023-03-30T05:06:36.460Z,24.08
2023-03-30T05:09:05.315Z,25.23
2023-03-30T05:11:35.014Z,21.67
2023-03-30T05:14:03.318Z,34.33
2023-03-30T05:16:31.429Z,23.80
2023-03-30T05:18:59.530Z,24.83
2023-03-30T05:21:27.482Z,26.73
2023-03-30T05:23:55.727Z,30.25
2023-03-30T05:26:24.102Z,24.05
2023-03-30T05:28:53.650Z,21.48
2023-03-30T05:31:22.425Z,29.58
2023-03-30T05:33:52.020Z,26.95
2023-03-30T05:36:20.628Z,25.88
2023-03-30T05:38:48.843Z,25.88
2023-03-30T05:41:17.354Z,30.88
2023-03-30T05:43:45.743Z,26.92
2023-03-30T05:46:15.490Z,28.05
2023-03-30T05:48:43.711Z,31.27
2023-03-30T05:51:12.749Z,34.33
2023-03-30T05:53:40.757Z,28.95
2023-03-30T05:56:10.446Z,30.55
2023-03-30T05:58:38.454Z,31.40
2023-03-30T06:01:06.925Z,34.17
2023-03-30T06:03:36.613Z,29.20
2023-03-30T06:06:05.159Z,33.80
2023-03-30T06:08:33.225Z,30.15
2023-03-30T06:11:02.011Z,23.00
2023-03-30T06:13:30.468Z,27.15
2023-03-30T06:15:59.684Z,29.02
2023-03-30T06:18:29.508Z,30.13
2023-03-30T06:20:59.002Z,26.33
2023-03-30T06:23:27.087Z,31.70
2023-03-30T06:25:55.614Z,24.27
2023-03-30T06:28:24.105Z,33.03
2023-03-30T06:30:52.157Z,26.65
2023-03-30T06:33:20.419Z,28.52
2023-03-30T06:35:49.615Z,33.88
2023-03-30T06:38:20.111Z,32.47
2023-03-30T06:40:48.320Z,29.92
2023-03-30T06:43:18.068Z,36.55
2023-03-30T06:45:51.037Z,42.42
2023-03-30T06:48:22.497Z,36.33
2023-03-30T06:50:51.549Z,32.67
2023-03-30T06:53:21.513Z,39.35
2023-03-30T06:55:53.190Z,38.75
2023-03-30T06:58:21.739Z,29.20
2023-03-30T07:00:50.398Z,34.00
2023-03-30T07:03:19.552Z,34.15
2023-03-30T07:05:49.087Z,33.85
2023-03-30T07:08:18.312Z,31.42
2023-03-30T07:10:48.836Z,27.35
2023-03-30T07:13:17.829Z,32.03
2023-03-30T07:15:46.970Z,28.42
2023-03-30T07:18:15.028Z,32.55
2023-03-30T07:20:43.159Z,35.67
2023-03-30T07:23:11.641Z,33.53
2023-03-30T07:25:39.994Z,25.70
2023-03-30T07:28:10.082Z,34.78
2023-03-30T07:30:39.224Z,37.72
2023-03-30T07:33:07.630Z,40.47
2023-03-30T07:35:35.986Z,37.67
2023-03-30T07:38:04.250Z,39.50
2023-03-30T07:40:32.699Z,42.70
2023-03-30T07:43:00.780Z,38.75
2023-03-30T07:45:30.142Z,34.20
2023-03-30T07:47:58.231Z,44.15
2023-03-30T07:50:26.535Z,41.60
2023-03-30T07:52:54.572Z,42.72
2023-03-30T07:55:22.950Z,35.15
2023-03-30T07:57:51.065Z,38.15
2023-03-30T08:00:21.705Z,29.15
2023-03-30T08:02:51.816Z,39.58
2023-03-30T08:05:20.171Z,38.70
2023-03-30T08:07:48.225Z,28.70
2023-03-30T08:10:16.253Z,38.85
2023-03-30T08:12:44.258Z,42.47
2023-03-30T08:15:12.922Z,39.92
2023-03-30T08:17:41.334Z,37.58
2023-03-30T08:20:12.627Z,44.22
2023-03-30T08:22:41.087Z,37.83
2023-03-30T08:25:09.729Z,35.72
2023-03-30T08:27:37.770Z,44.92
2023-03-30T08:30:06.978Z,38.60
2023-03-30T08:32:34.964Z,35.85
2023-03-30T08:35:03.000Z,38.50
2023-03-30T08:37:32.398Z,39.38
2023-03-30T08:40:00.646Z,43.38
2023-03-30T08:42:50.529Z,42.08
2023-03-30T08:45:18.699Z,39.28
2023-03-30T08:47:50.999Z,37.15
2023-03-30T08:52:53.006Z,37.20
2023-03-30T08:55:25.398Z,35.83
2023-03-30T08:57:59.367Z,43.13
2023-03-30T09:00:37.064Z,37.30
2023-03-30T09:03:12.581Z,42.08
2023-03-30T09:05:46.715Z,37.55
2023-03-30T09:08:21.137Z,40.92
2023-03-30T09:10:53.773Z,42.50
2023-03-30T09:13:26.442Z,43.03
2023-03-30T09:16:00.229Z,42.53
2023-03-30T09:18:31.358Z,37.08
2023-03-30T09:21:01.375Z,48.92
2023-03-30T09:23:32.141Z,41.85
2023-03-30T09:26:09.043Z,40.03
2023-03-30T09:28:48.159Z,35.63
2023-03-30T09:31:22.300Z,35.63
2023-03-30T09:33:59.174Z,36.90
2023-03-30T09:36:33.466Z,35.35
2023-03-30T09:39:02.962Z,35.63
2023-03-30T09:41:43.218Z,33.13
2023-03-30T09:44:20.048Z,31.55
2023-03-30T09:46:49.995Z,31.27
2023-03-30T09:49:18.371Z,33.85
2023-03-30T09:52:01.448Z,35.72
2023-03-30T09:54:38.509Z,37.45
2023-03-30T09:57:07.438Z,35.58
2023-03-30T09:59:37.636Z,34.42
2023-03-30T10:02:21.311Z,40.03
2023-03-30T10:05:02.374Z,38.47
2023-03-30T10:07:33.892Z,48.95
2023-03-30T10:10:14.519Z,31.87
2023-03-30T10:12:42.800Z,36.00
2023-03-30T10:15:17.312Z,39.63
2023-03-30T10:17:48.338Z,33.60
2023-03-30T10:20:29.788Z,34.40
2023-03-30T10:23:03.342Z,39.38
2023-03-30T10:25:35.095Z,30.88
2023-03-30T10:28:07.240Z,32.30
2023-03-30T10:30:35.800Z,29.38
2023-03-30T10:33:04.280Z,33.30
2023-03-30T10:35:37.185Z,36.00
2023-03-30T10:38:07.587Z,38.65
2023-03-30T10:40:39.480Z,34.30
2023-03-30T10:43:13.760Z,38.05
2023-03-30T10:45:45.832Z,33.05
2023-03-30T10:48:30.074Z,35.95
2023-03-30T10:51:07.735Z,34.78
2023-03-30T10:53:44.993Z,30.92
2023-03-30T10:56:35.947Z,33.63
2023-03-30T10:59:25.228Z,33.53
2023-03-30T11:02:11.495Z,27.38
2023-03-30T11:04:44.617Z,31.80
2023-03-30T11:07:18.998Z,31.45
2023-03-30T11:09:53.745Z,33.78
2023-03-30T11:12:27.779Z,34.92
2023-03-30T11:15:01.714Z,37.10
2023-03-30T11:17:34.090Z,38.40
2023-03-30T11:20:11.381Z,28.58
2023-03-30T11:22:46.578Z,37.63
2023-03-30T11:25:20.886Z,34.03
2023-03-30T11:27:58.000Z,32.38
2023-03-30T11:30:29.685Z,39.53
2023-03-30T11:33:04.121Z,38.90
2023-03-30T11:35:37.414Z,35.67
2023-03-30T11:38:12.777Z,42.05
2023-03-30T11:40:46.346Z,37.08
2023-03-30T11:43:17.617Z,43.25
2023-03-30T11:46:04.284Z,36.45
2023-03-30T11:49:05.620Z,33.85
2023-03-30T11:51:54.496Z,38.95
2023-03-30T11:55:02.403Z,41.78
2023-03-30T11:57:38.112Z,42.95
2023-03-30T12:00:26.687Z,41.33
2023-03-30T12:03:05.413Z,38.30
2023-03-30T12:05:36.509Z,42.10
2023-03-30T12:08:18.435Z,43.90
2023-03-30T12:10:52.241Z,37.60
2023-03-30T12:13:21.559Z,38.00
2023-03-30T12:15:56.555Z,41.88
2023-03-30T12:18:33.392Z,37.13
2023-03-30T12:21:13.024Z,34.33
2023-03-30T12:23:48.891Z,37.95
2023-03-30T12:26:26.728Z,41.70
2023-03-30T12:32:05.416Z,50.78
2023-03-30T12:34:36.327Z,41.57
2023-03-30T12:37:09.918Z,40.92
2023-03-30T12:39:44.912Z,52.42
2023-03-30T12:42:26.394Z,39.15
2023-03-30T12:45:26.682Z,41.27
2023-03-30T12:48:14.428Z,38.45
2023-03-30T12:50:55.689Z,47.35
2023-03-30T12:53:56.931Z,41.60
2023-03-30T12:56:34.128Z,48.63
2023-03-30T12:59:25.623Z,39.70
2023-03-30T13:02:15.051Z,37.45
2023-03-30T13:04:49.064Z,35.33
2023-03-30T13:07:21.767Z,47.47
2023-03-30T13:09:56.874Z,38.70
2023-03-30T13:12:41.509Z,34.67
2023-03-30T13:15:35.529Z,43.10
2023-03-30T13:18:05.870Z,36.80
2023-03-30T13:20:36.737Z,34.65
2023-03-30T13:23:27.230Z,36.88
2023-03-30T13:26:05.942Z,33.00
2023-03-30T13:28:56.954Z,34.50
2023-03-30T13:32:09.970Z,32.97
2023-03-30T13:35:06.208Z,31.55
2023-03-30T13:37:54.858Z,29.65
2023-03-30T13:40:41.578Z,33.33
2023-03-30T13:43:19.376Z,29.77
2023-03-30T13:46:00.409Z,35.00
2023-03-30T13:48:52.185Z,30.38
2023-03-30T13:51:25.756Z,35.92
2023-03-30T13:53:59.378Z,33.75
2023-03-30T13:56:28.564Z,32.42
2023-03-30T13:59:04.360Z,28.70
2023-03-30T14:01:33.134Z,27.70
2023-03-30T14:04:04.644Z,29.35
2023-03-30T14:06:35.518Z,30.80
2023-03-30T14:09:14.078Z,27.83
2023-03-30T14:11:45.603Z,31.48
2023-03-30T14:14:20.524Z,27.65
2023-03-30T14:16:48.921Z,23.25
2023-03-30T14:19:23.840Z,25.10
2023-03-30T14:21:55.046Z,23.25
2023-03-30T14:24:31.977Z,29.83
2023-03-30T14:27:03.810Z,27.95
2023-03-30T14:29:32.614Z,25.42
2023-03-30T14:32:08.976Z,21.60
2023-03-30T14:34:38.303Z,24.00
2023-03-30T14:37:08.727Z,26.55
2023-03-30T14:39:42.618Z,29.33
2023-03-30T14:42:18.817Z,25.20
2023-03-30T14:44:49.299Z,24.25
2023-03-30T14:47:21.110Z,26.52
2023-03-30T14:49:50.057Z,19.80
2023-03-30T14:52:20.193Z,23.67
2023-03-30T14:55:05.213Z,20.20
2023-03-30T14:57:38.029Z,18.15
2023-03-30T15:00:21.017Z,16.88
2023-03-30T15:02:53.313Z,18.50
2023-03-30T15:07:52.225Z,19.48
2023-03-30T15:10:28.003Z,19.70
2023-03-30T15:12:59.093Z,18.98
2023-03-30T15:15:31.335Z,19.60
2023-03-30T15:18:00.810Z,20.73
2023-03-30T15:20:30.963Z,21.95
2023-03-30T15:23:01.071Z,18.05
2023-03-30T15:25:35.665Z,24.52
2023-03-30T15:28:06.649Z,21.02
2023-03-30T15:30:39.142Z,20.67
2023-03-30T15:33:08.229Z,19.63
2023-03-30T15:35:38.371Z,21.33
2023-03-30T15:38:17.386Z,16.10
2023-03-30T15:40:50.122Z,25.92
2023-03-30T15:43:25.269Z,18.58
2023-03-30T15:45:56.016Z,18.23
2023-03-30T15:48:28.818Z,18.95
2023-03-30T15:51:03.281Z,21.05
2023-03-30T15:53:40.980Z,18.92
2023-03-30T15:56:14.530Z,15.40
2023-03-30T15:58:43.848Z,16.98
2023-03-30T16:01:15.399Z,22.73
2023-03-30T16:03:52.329Z,20.42
2023-03-30T16:06:22.075Z,18.48
2023-03-30T16:08:50.182Z,16.42
2023-03-30T16:11:20.662Z,17.77
2023-03-30T16:13:49.960Z,13.32
2023-03-30T16:16:18.907Z,13.90
2023-03-30T16:18:48.394Z,17.33
2023-03-30T16:21:18.470Z,20.92
2023-03-30T16:23:46.710Z,18.40
2023-03-30T16:26:14.987Z,18.38
2023-03-30T16:28:44.741Z,19.02
2023-03-30T16:31:17.623Z,18.23
2023-03-30T16:33:46.152Z,17.90
2023-03-30T16:36:16.329Z,16.05
2023-03-30T16:38:44.943Z,19.42
2023-03-30T16:41:17.261Z,19.00
2023-03-30T16:43:46.840Z,18.40
2023-03-30T16:46:15.653Z,22.13
2023-03-30T16:48:43.828Z,21.17
2023-03-30T16:51:12.244Z,23.40
2023-03-30T16:53:40.637Z,19.02
2023-03-30T16:56:14.993Z,17.13
2023-03-30T16:58:42.967Z,19.05
2023-03-30T17:01:15.807Z,17.88
2023-03-30T17:03:43.874Z,22.33
2023-03-30T17:06:11.980Z,24.08
2023-03-30T17:08:42.411Z,26.17
2023-03-30T17:11:13.551Z,23.65
2023-03-30T17:13:41.756Z,23.95
2023-03-30T17:16:12.627Z,19.00
2023-03-30T17:18:42.154Z,19.15
2023-03-30T17:21:16.228Z,22.90
2023-03-30T17:23:45.550Z,19.95
2023-03-30T17:26:13.670Z,21.90
2023-03-30T17:28:42.131Z,19.95
2023-03-30T17:31:16.985Z,23.27
2023-03-30T17:33:47.202Z,22.83
2023-03-30T17:36:20.399Z,24.88
2023-03-30T17:38:49.402Z,20.65
2023-03-30T17:41:19.697Z,21.92
2023-03-30T17:43:48.989Z,22.77
2023-03-30T17:46:19.586Z,23.83
2023-03-30T17:48:51.159Z,19.30
2023-03-30T17:51:19.578Z,21.60
2023-03-30T17:53:47.913Z,27.15
2023-03-30T17:56:16.007Z,28.13
2023-03-30T17:58:44.187Z,21.83
2023-03-30T18:01:13.834Z,22.70
2023-03-30T18:03:42.671Z,19.85
2023-03-30T18:06:13.842Z,20.38
2023-03-30T18:08:43.020Z,27.02
2023-03-30T18:11:11.309Z,26.05
2023-03-30T18:13:39.329Z,21.50
2023-03-30T18:16:07.844Z,23.08
2023-03-30T18:18:36.076Z,25.40
2023-03-30T18:21:08.975Z,20.20
2023-03-30T18:23:38.649Z,28.00
2023-03-30T18:26:11.211Z,23.58
2023-03-30T18:28:42.537Z,28.23
2023-03-30T18:31:10.931Z,26.92
2023-03-30T18:33:39.373Z,25.60
2023-03-30T18:36:12.604Z,27.30
2023-03-30T18:38:42.766Z,28.10
2023-03-30T18:41:12.756Z,28.30
2023-03-30T18:43:40.759Z,31.48
2023-03-30T18:46:12.451Z,27.23
2023-03-30T18:48:40.516Z,27.83
2023-03-30T18:51:10.492Z,30.17
2023-03-30T18:53:38.488Z,29.80
2023-03-30T18:56:10.369Z,31.90
2023-03-30T18:58:42.051Z,35.70
2023-03-30T19:01:12.664Z,38.85
2023-03-30T19:03:41.768Z,34.22
2023-03-30T19:06:13.820Z,32.92
2023-03-30T19:08:43.559Z,34.42
2023-03-30T19:11:17.603Z,34.53
2023-03-30T19:13:47.074Z,31.00
2023-03-30T19:16:16.647Z,32.13
2023-03-30T19:18:44.762Z,33.80
2023-03-30T19:21:16.209Z,31.13
2023-03-30T19:23:44.198Z,32.63
2023-03-30T19:26:13.757Z,30.83
2023-03-30T19:28:41.741Z,36.20
2023-03-30T19:31:13.331Z,35.67
2023-03-30T19:33:41.606Z,36.22
2023-03-30T19:36:11.016Z,28.00
2023-03-30T19:38:39.270Z,32.88
2023-03-30T19:41:07.926Z,35.15
2023-03-30T19:43:37.601Z,35.50
2023-03-30T19:46:06.044Z,32.60
2023-03-30T19:48:34.319Z,39.60
2023-03-30T19:51:02.435Z,37.17
2023-03-30T19:53:30.603Z,39.28
2023-03-30T19:55:58.629Z,37.03
2023-03-30T19:58:26.706Z,35.90
2023-03-30T20:00:57.473Z,37.78
2023-03-30T20:03:26.606Z,34.28
2023-03-30T20:05:55.161Z,39.60
2023-03-30T20:08:24.190Z,34.83
2023-03-30T20:10:52.654Z,32.28
2023-03-30T20:13:22.040Z,34.35
2023-03-30T20:15:54.267Z,31.80
2023-03-30T20:18:23.802Z,34.72
2023-03-30T20:20:51.827Z,37.50
2023-03-30T20:23:20.148Z,33.05
2023-03-30T20:25:49.478Z,40.55
2023-03-30T20:28:18.210Z,34.92
2023-03-30T20:30:46.236Z,31.65
2023-03-30T20:33:14.447Z,34.72
2023-03-30T20:35:44.102Z,30.05
2023-03-30T20:38:12.146Z,34.97
2023-03-30T20:40:40.127Z,37.70
2023-03-30T20:43:10.240Z,31.95
2023-03-30T20:45:48.125Z,32.30
2023-03-30T20:48:26.349Z,38.28
2023-03-30T20:50:56.729Z,35.42
2023-03-30T20:53:25.518Z,40.47
2023-03-30T20:55:53.566Z,29.08
2023-03-30T20:58:23.250Z,42.08
2023-03-30T21:00:53.051Z,37.85
2023-03-30T21:03:21.613Z,39.00
2023-03-30T21:06:02.106Z,32.45
2023-03-30T21:08:31.399Z,35.88
2023-03-30T21:10:59.967Z,34.90
2023-03-30T21:13:28.027Z,32.40
2023-03-30T21:15:59.281Z,37.53
2023-03-30T21:18:27.647Z,36.25
2023-03-30T21:20:56.171Z,34.75
2023-03-30T21:23:26.769Z,38.30
2023-03-30T21:25:58.467Z,39.63
2023-03-30T21:28:28.569Z,30.40
2023-03-30T21:30:57.754Z,30.65
2023-03-30T21:33:26.830Z,32.22
2023-03-30T21:35:56.657Z,34.63
2023-03-30T21:38:28.122Z,33.95
2023-03-30T21:41:01.384Z,31.67
2023-03-30T21:43:31.009Z,43.67
2023-03-30T21:46:00.513Z,40.00
2023-03-30T21:48:30.731Z,32.65
2023-03-30T21:51:00.240Z,34.50
2023-03-30T21:53:30.924Z,26.85
2023-03-30T21:56:00.026Z,29.83
2023-03-30T21:58:28.936Z,25.33
2023-03-30T22:01:09.079Z,27.67
2023-03-30T22:03:40.775Z,27.92
2023-03-30T22:06:10.533Z,29.83
2023-03-30T22:08:39.984Z,37.88
2023-03-30T22:11:09.794Z,31.95
2023-03-30T22:13:38.182Z,27.40
2023-03-30T22:16:08.271Z,29.63
2023-03-30T22:18:36.451Z,32.55
2023-03-30T22:21:07.312Z,33.22
2023-03-30T22:23:35.524Z,29.42
2023-03-30T22:26:05.150Z,31.60
2023-03-30T22:28:33.231Z,32.30
2023-03-30T22:31:02.359Z,27.65
2023-03-30T22:33:30.510Z,29.10
2023-03-30T22:35:59.961Z,28.40
2023-03-30T22:38:28.993Z,34.35
2023-03-30T22:41:04.646Z,29.13
2023-03-30T22:43:36.221Z,31.15
2023-03-30T22:46:05.319Z,36.58
2023-03-30T22:48:34.223Z,32.80
2023-03-30T22:51:03.259Z,35.72
2023-03-30T22:53:31.988Z,27.92
2023-03-30T22:56:00.064Z,32.28
2023-03-30T22:58:28.585Z,29.38
2023-03-30T23:01:02.785Z,29.55
2023-03-30T23:03:31.025Z,32.90
2023-03-30T23:06:01.135Z,31.95
2023-03-30T23:08:32.085Z,32.92
2023-03-30T23:11:04.847Z,23.08
2023-03-30T23:13:37.578Z,29.05
2023-03-30T23:16:08.448Z,25.83
2023-03-30T23:18:36.858Z,26.58
2023-03-30T23:21:06.780Z,26.42
2023-03-30T23:23:36.566Z,23.30
2023-03-30T23:26:09.109Z,27.80
2023-03-30T23:28:39.255Z,28.70
2023-03-30T23:31:13.051Z,35.30
2023-03-30T23:33:41.433Z,24.75
2023-03-30T23:36:10.450Z,22.20
2023-03-30T23:38:38.828Z,27.23
2023-03-30T23:41:07.656Z,24.25
2023-03-30T23:43:35.785Z,24.23
2023-03-30T23:46:04.279Z,24.13
2023-03-30T23:48:34.328Z,23.13
2023-03-30T23:51:02.325Z,20.15
2023-03-30T23:53:30.376Z,15.95
2023-03-30T23:55:59.746Z,23.83
2023-03-30T23:58:27.877Z,26.75
